sensor_id;sensor_type;location;lat;lon;timestamp;P1;durP1;ratioP1;P2;durP2;ratioP2
10847;SDS011;5477;48.806;9.154;2023-05-14T00:00:22;10.47;;;8.43;;
10847;SDS011;5477;48.806;9.154;2023-05-14T00:02:50;9.33;;;8.10;;
10847;SDS011;5477;48.806;9.154;2023-05-14T00:05:18;10.17;;;9.17;;
10847;SDS011;5477;48.806;9.154;2023-05-14T00:07:46;10.53;;;9.50;;
10847;SDS011;5477;48.806;9.154;2023-05-14T00:10:14;10.90;;;9.80;;
10847;SDS011;5477;48.806;9.154;2023-05-14T00:12:42;10.60;;;9.60;;
10847;SDS011;5477;48.806;9.154;2023-05-14T00:15:12;10.07;;;8.80;;
10847;SDS011;5477;48.806;9.154;2023-05-14T00:17:40;9.33;;;8.43;;
10847;SDS011;5477;48.806;9.154;2023-05-14T00:20:09;9.67;;;8.60;;
10847;SDS011;5477;48.806;9.154;2023-05-14T00:22:37;9.27;;;8.37;;
10847;SDS011;5477;48.806;9.154;2023-05-14T00:25:07;9.03;;;8.23;;
10847;SDS011;5477;48.806;9.154;2023-05-14T00:27:35;11.33;;;8.53;;
10847;SDS011;5477;48.806;9.154;2023-05-14T00:30:04;8.90;;;8.10;;
10847;SDS011;5477;48.806;9.154;2023-05-14T00:32:34;9.17;;;8.30;;
10847;SDS011;5477;48.806;9.154;2023-05-14T00:35:02;9.00;;;8.10;;
10847;SDS011;5477;48.806;9.154;2023-05-14T00:37:30;9.53;;;8.63;;
10847;SDS011;5477;48.806;9.154;2023-05-14T00:39:58;9.80;;;8.20;;
10847;SDS011;5477;48.806;9.154;2023-05-14T00:42:26;10.40;;;8.67;;
10847;SDS011;5477;48.806;9.154;2023-05-14T00:44:54;10.53;;;9.07;;
10847;SDS011;5477;48.806;9.154;2023-05-14T00:47:22;9.30;;;8.40;;
10847;SDS011;5477;48.806;9.154;2023-05-14T00:49:52;9.50;;;8.53;;
10847;SDS011;5477;48.806;9.154;2023-05-14T00:52:20;9.00;;;8.17;;
10847;SDS011;5477;48.806;9.154;2023-05-14T00:54:48;9.23;;;7.60;;
10847;SDS011;5477;48.806;9.154;2023-05-14T00:57:16;8.47;;;7.67;;
10847;SDS011;5477;48.806;9.154;2023-05-14T00:59:44;9.30;;;8.40;;
10847;SDS011;5477;48.806;9.154;2023-05-14T01:02:14;8.93;;;8.13;;
10847;SDS011;5477;48.806;9.154;2023-05-14T01:04:42;9.67;;;8.77;;
10847;SDS011;5477;48.806;9.154;2023-05-14T01:07:15;8.70;;;7.87;;
10847;SDS011;5477;48.806;9.154;2023-05-14T01:09:52;9.80;;;8.13;;
10847;SDS011;5477;48.806;9.154;2023-05-14T01:12:25;9.07;;;8.20;;
10847;SDS011;5477;48.806;9.154;2023-05-14T01:15:01;9.50;;;8.60;;
10847;SDS011;5477;48.806;9.154;2023-05-14T01:17:32;9.50;;;8.60;;
10847;SDS011;5477;48.806;9.154;2023-05-14T01:20:05;9.60;;;8.60;;
10847;SDS011;5477;48.806;9.154;2023-05-14T01:22:36;8.63;;;7.73;;
10847;SDS011;5477;48.806;9.154;2023-05-14T01:25:04;9.63;;;8.03;;
10847;SDS011;5477;48.806;9.154;2023-05-14T01:27:34;9.47;;;8.57;;
10847;SDS011;5477;48.806;9.154;2023-05-14T01:30:11;9.80;;;8.73;;
10847;SDS011;5477;48.806;9.154;2023-05-14T01:32:46;9.27;;;8.13;;
10847;SDS011;5477;48.806;9.154;2023-05-14T01:35:17;10.83;;;8.53;;
10847;SDS011;5477;48.806;9.154;2023-05-14T01:37:47;9.03;;;7.97;;
10847;SDS011;5477;48.806;9.154;2023-05-14T01:40:16;9.73;;;8.70;;
10847;SDS011;5477;48.806;9.154;2023-05-14T01:42:44;10.03;;;9.03;;
10847;SDS011;5477;48.806;9.154;2023-05-14T01:45:13;10.57;;;9.57;;
10847;SDS011;5477;48.806;9.154;2023-05-14T01:47:41;10.00;;;9.00;;
10847;SDS011;5477;48.806;9.154;2023-05-14T01:50:09;11.10;;;9.47;;
10847;SDS011;5477;48.806;9.154;2023-05-14T01:52:37;10.87;;;9.77;;
10847;SDS011;5477;48.806;9.154;2023-05-14T01:55:07;10.40;;;9.17;;
10847;SDS011;5477;48.806;9.154;2023-05-14T01:57:35;10.20;;;9.20;;
10847;SDS011;5477;48.806;9.154;2023-05-14T02:00:04;10.37;;;9.30;;
10847;SDS011;5477;48.806;9.154;2023-05-14T02:02:39;11.50;;;9.13;;
10847;SDS011;5477;48.806;9.154;2023-05-14T02:05:10;11.10;;;8.57;;
10847;SDS011;5477;48.806;9.154;2023-05-14T02:07:38;10.40;;;8.93;;
10847;SDS011;5477;48.806;9.154;2023-05-14T02:10:09;11.40;;;9.17;;
10847;SDS011;5477;48.806;9.154;2023-05-14T02:12:37;9.90;;;8.50;;
10847;SDS011;5477;48.806;9.154;2023-05-14T02:15:05;10.13;;;8.83;;
10847;SDS011;5477;48.806;9.154;2023-05-14T02:17:36;9.33;;;8.43;;
10847;SDS011;5477;48.806;9.154;2023-05-14T02:20:04;12.20;;;8.93;;
10847;SDS011;5477;48.806;9.154;2023-05-14T02:22:35;8.73;;;7.93;;
10847;SDS011;5477;48.806;9.154;2023-05-14T02:25:04;9.67;;;7.97;;
10847;SDS011;5477;48.806;9.154;2023-05-14T02:27:34;9.17;;;8.20;;
10847;SDS011;5477;48.806;9.154;2023-05-14T02:30:02;9.27;;;8.37;;
10847;SDS011;5477;48.806;9.154;2023-05-14T02:32:31;9.20;;;8.30;;
10847;SDS011;5477;48.806;9.154;2023-05-14T02:35:00;9.50;;;8.60;;
10847;SDS011;5477;48.806;9.154;2023-05-14T02:37:28;9.00;;;8.07;;
10847;SDS011;5477;48.806;9.154;2023-05-14T02:39:56;9.97;;;8.87;;
10847;SDS011;5477;48.806;9.154;2023-05-14T02:42:24;12.70;;;9.23;;
10847;SDS011;5477;48.806;9.154;2023-05-14T02:44:54;10.53;;;9.20;;
10847;SDS011;5477;48.806;9.154;2023-05-14T02:47:22;10.47;;;9.27;;
10847;SDS011;5477;48.806;9.154;2023-05-14T02:49:50;9.50;;;8.33;;
10847;SDS011;5477;48.806;9.154;2023-05-14T02:52:18;10.27;;;9.20;;
10847;SDS011;5477;48.806;9.154;2023-05-14T02:54:46;11.80;;;8.97;;
10847;SDS011;5477;48.806;9.154;2023-05-14T02:57:14;11.37;;;9.70;;
10847;SDS011;5477;48.806;9.154;2023-05-14T02:59:42;10.80;;;9.03;;
10847;SDS011;5477;48.806;9.154;2023-05-14T03:02:12;10.07;;;8.67;;
10847;SDS011;5477;48.806;9.154;2023-05-14T03:04:40;10.97;;;9.20;;
10847;SDS011;5477;48.806;9.154;2023-05-14T03:07:08;9.63;;;8.30;;
10847;SDS011;5477;48.806;9.154;2023-05-14T03:09:36;10.20;;;8.90;;
10847;SDS011;5477;48.806;9.154;2023-05-14T03:12:04;9.43;;;8.47;;
10847;SDS011;5477;48.806;9.154;2023-05-14T03:14:33;10.60;;;9.53;;
10847;SDS011;5477;48.806;9.154;2023-05-14T03:17:01;9.70;;;8.20;;
10847;SDS011;5477;48.806;9.154;2023-05-14T03:19:31;10.47;;;9.37;;
10847;SDS011;5477;48.806;9.154;2023-05-14T03:21:59;10.80;;;9.70;;
10847;SDS011;5477;48.806;9.154;2023-05-14T03:24:27;9.80;;;8.80;;
10847;SDS011;5477;48.806;9.154;2023-05-14T03:26:55;12.90;;;9.10;;
10847;SDS011;5477;48.806;9.154;2023-05-14T03:29:23;9.87;;;8.87;;
10847;SDS011;5477;48.806;9.154;2023-05-14T03:31:51;10.10;;;9.10;;
10847;SDS011;5477;48.806;9.154;2023-05-14T03:34:19;10.30;;;9.17;;
10847;SDS011;5477;48.806;9.154;2023-05-14T03:36:49;10.23;;;9.23;;
10847;SDS011;5477;48.806;9.154;2023-05-14T03:39:16;10.70;;;9.60;;
10847;SDS011;5477;48.806;9.154;2023-05-14T03:41:45;10.23;;;9.07;;
10847;SDS011;5477;48.806;9.154;2023-05-14T03:44:13;10.83;;;9.73;;
10847;SDS011;5477;48.806;9.154;2023-05-14T03:46:56;10.97;;;9.77;;
10847;SDS011;5477;48.806;9.154;2023-05-14T03:49:24;11.23;;;10.03;;
10847;SDS011;5477;48.806;9.154;2023-05-14T03:51:54;10.80;;;9.70;;
10847;SDS011;5477;48.806;9.154;2023-05-14T03:54:23;11.60;;;10.40;;
10847;SDS011;5477;48.806;9.154;2023-05-14T03:56:51;12.10;;;10.27;;
10847;SDS011;5477;48.806;9.154;2023-05-14T03:59:19;11.80;;;10.03;;
10847;SDS011;5477;48.806;9.154;2023-05-14T04:01:47;12.40;;;10.10;;
10847;SDS011;5477;48.806;9.154;2023-05-14T04:04:17;10.90;;;9.80;;
10847;SDS011;5477;48.806;9.154;2023-05-14T04:06:46;10.40;;;9.30;;
10847;SDS011;5477;48.806;9.154;2023-05-14T04:09:15;12.07;;;9.83;;
10847;SDS011;5477;48.806;9.154;2023-05-14T04:11:43;11.10;;;9.87;;
10847;SDS011;5477;48.806;9.154;2023-05-14T04:14:11;10.73;;;9.63;;
10847;SDS011;5477;48.806;9.154;2023-05-14T04:16:39;11.17;;;9.97;;
10847;SDS011;5477;48.806;9.154;2023-05-14T04:19:07;11.00;;;9.70;;
10847;SDS011;5477;48.806;9.154;2023-05-14T04:21:35;11.10;;;9.43;;
10847;SDS011;5477;48.806;9.154;2023-05-14T04:24:03;13.03;;;10.80;;
10847;SDS011;5477;48.806;9.154;2023-05-14T04:26:33;10.40;;;9.03;;
10847;SDS011;5477;48.806;9.154;2023-05-14T04:29:01;10.40;;;9.27;;
10847;SDS011;5477;48.806;9.154;2023-05-14T04:31:29;11.37;;;9.60;;
10847;SDS011;5477;48.806;9.154;2023-05-14T04:33:57;10.70;;;9.60;;
10847;SDS011;5477;48.806;9.154;2023-05-14T04:36:25;10.63;;;9.63;;
10847;SDS011;5477;48.806;9.154;2023-05-14T04:38:53;11.93;;;8.87;;
10847;SDS011;5477;48.806;9.154;2023-05-14T04:41:22;10.13;;;9.13;;
10847;SDS011;5477;48.806;9.154;2023-05-14T04:43:54;9.10;;;8.20;;
10847;SDS011;5477;48.806;9.154;2023-05-14T04:46:22;9.87;;;8.67;;
10847;SDS011;5477;48.806;9.154;2023-05-14T04:48:50;9.53;;;8.63;;
10847;SDS011;5477;48.806;9.154;2023-05-14T04:51:18;9.70;;;8.80;;
10847;SDS011;5477;48.806;9.154;2023-05-14T04:53:46;10.63;;;8.37;;
10847;SDS011;5477;48.806;9.154;2023-05-14T04:56:13;9.80;;;8.80;;
10847;SDS011;5477;48.806;9.154;2023-05-14T04:58:41;9.57;;;8.57;;
10847;SDS011;5477;48.806;9.154;2023-05-14T05:01:11;9.03;;;7.90;;
10847;SDS011;5477;48.806;9.154;2023-05-14T05:03:39;8.87;;;8.00;;
10847;SDS011;5477;48.806;9.154;2023-05-14T05:06:07;9.90;;;8.90;;
10847;SDS011;5477;48.806;9.154;2023-05-14T05:08:35;11.27;;;8.83;;
10847;SDS011;5477;48.806;9.154;2023-05-14T05:11:03;8.77;;;7.87;;
10847;SDS011;5477;48.806;9.154;2023-05-14T05:13:31;9.30;;;8.37;;
10847;SDS011;5477;48.806;9.154;2023-05-14T05:15:59;8.87;;;7.93;;
10847;SDS011;5477;48.806;9.154;2023-05-14T05:18:29;9.60;;;8.63;;
10847;SDS011;5477;48.806;9.154;2023-05-14T05:20:56;9.20;;;8.20;;
10847;SDS011;5477;48.806;9.154;2023-05-14T05:23:25;9.23;;;8.17;;
10847;SDS011;5477;48.806;9.154;2023-05-14T05:25:53;9.67;;;8.50;;
10847;SDS011;5477;48.806;9.154;2023-05-14T05:28:21;9.03;;;8.03;;
10847;SDS011;5477;48.806;9.154;2023-05-14T05:30:49;9.43;;;7.90;;
10847;SDS011;5477;48.806;9.154;2023-05-14T05:33:17;9.93;;;8.23;;
10847;SDS011;5477;48.806;9.154;2023-05-14T05:35:47;8.70;;;7.90;;
10847;SDS011;5477;48.806;9.154;2023-05-14T05:38:15;8.90;;;7.80;;
10847;SDS011;5477;48.806;9.154;2023-05-14T05:40:44;8.63;;;7.57;;
10847;SDS011;5477;48.806;9.154;2023-05-14T05:43:12;8.23;;;7.43;;
10847;SDS011;5477;48.806;9.154;2023-05-14T05:45:40;9.07;;;7.23;;
10847;SDS011;5477;48.806;9.154;2023-05-14T05:48:08;8.43;;;7.53;;
10847;SDS011;5477;48.806;9.154;2023-05-14T05:50:36;9.57;;;7.37;;
10847;SDS011;5477;48.806;9.154;2023-05-14T05:53:05;9.47;;;7.40;;
10847;SDS011;5477;48.806;9.154;2023-05-14T05:55:33;10.43;;;7.77;;
10847;SDS011;5477;48.806;9.154;2023-05-14T05:58:01;9.10;;;7.87;;
10847;SDS011;5477;48.806;9.154;2023-05-14T06:00:29;8.00;;;7.20;;
10847;SDS011;5477;48.806;9.154;2023-05-14T06:02:57;8.50;;;7.60;;
10847;SDS011;5477;48.806;9.154;2023-05-14T06:05:25;8.47;;;7.60;;
10847;SDS011;5477;48.806;9.154;2023-05-14T06:07:53;8.63;;;7.40;;
10847;SDS011;5477;48.806;9.154;2023-05-14T06:10:22;9.00;;;7.40;;
10847;SDS011;5477;48.806;9.154;2023-05-14T06:12:51;10.43;;;7.70;;
10847;SDS011;5477;48.806;9.154;2023-05-14T06:15:18;8.63;;;7.67;;
10847;SDS011;5477;48.806;9.154;2023-05-14T06:17:47;9.47;;;8.00;;
10847;SDS011;5477;48.806;9.154;2023-05-14T06:20:15;8.77;;;7.87;;
10847;SDS011;5477;48.806;9.154;2023-05-14T06:22:43;8.63;;;7.73;;
10847;SDS011;5477;48.806;9.154;2023-05-14T06:25:11;11.23;;;7.50;;
10847;SDS011;5477;48.806;9.154;2023-05-14T06:27:40;8.63;;;7.73;;
10847;SDS011;5477;48.806;9.154;2023-05-14T06:30:09;9.23;;;7.70;;
10847;SDS011;5477;48.806;9.154;2023-05-14T06:32:37;8.80;;;7.90;;
10847;SDS011;5477;48.806;9.154;2023-05-14T06:35:06;12.17;;;8.27;;
10847;SDS011;5477;48.806;9.154;2023-05-14T06:37:34;8.30;;;7.43;;
10847;SDS011;5477;48.806;9.154;2023-05-14T06:40:02;8.57;;;7.43;;
10847;SDS011;5477;48.806;9.154;2023-05-14T06:45:01;8.47;;;7.50;;
10847;SDS011;5477;48.806;9.154;2023-05-14T06:47:29;8.37;;;7.43;;
10847;SDS011;5477;48.806;9.154;2023-05-14T06:49:56;8.20;;;7.00;;
10847;SDS011;5477;48.806;9.154;2023-05-14T06:52:26;8.17;;;7.37;;
10847;SDS011;5477;48.806;9.154;2023-05-14T06:54:54;8.47;;;7.60;;
10847;SDS011;5477;48.806;9.154;2023-05-14T06:57:22;8.80;;;7.50;;
10847;SDS011;5477;48.806;9.154;2023-05-14T06:59:50;9.33;;;6.93;;
10847;SDS011;5477;48.806;9.154;2023-05-14T07:02:19;9.43;;;7.73;;
10847;SDS011;5477;48.806;9.154;2023-05-14T07:04:47;9.10;;;7.67;;
10847;SDS011;5477;48.806;9.154;2023-05-14T07:07:15;8.53;;;7.50;;
10847;SDS011;5477;48.806;9.154;2023-05-14T07:09:46;7.83;;;7.03;;
10847;SDS011;5477;48.806;9.154;2023-05-14T07:12:14;9.23;;;7.47;;
10847;SDS011;5477;48.806;9.154;2023-05-14T07:14:41;10.40;;;8.57;;
10847;SDS011;5477;48.806;9.154;2023-05-14T07:17:10;9.27;;;7.63;;
10847;SDS011;5477;48.806;9.154;2023-05-14T07:19:40;8.43;;;7.57;;
10847;SDS011;5477;48.806;9.154;2023-05-14T07:22:08;8.33;;;7.30;;
10847;SDS011;5477;48.806;9.154;2023-05-14T07:24:36;10.53;;;7.17;;
10847;SDS011;5477;48.806;9.154;2023-05-14T07:27:04;8.47;;;7.67;;
10847;SDS011;5477;48.806;9.154;2023-05-14T07:29:32;8.73;;;7.90;;
10847;SDS011;5477;48.806;9.154;2023-05-14T07:32:00;9.07;;;7.30;;
10847;SDS011;5477;48.806;9.154;2023-05-14T07:34:29;11.30;;;7.63;;
10847;SDS011;5477;48.806;9.154;2023-05-14T07:36:58;8.07;;;7.27;;
10847;SDS011;5477;48.806;9.154;2023-05-14T07:39:26;8.27;;;7.47;;
10847;SDS011;5477;48.806;9.154;2023-05-14T07:41:54;8.77;;;7.73;;
10847;SDS011;5477;48.806;9.154;2023-05-14T07:44:22;9.27;;;8.07;;
10847;SDS011;5477;48.806;9.154;2023-05-14T07:46:50;8.67;;;7.80;;
10847;SDS011;5477;48.806;9.154;2023-05-14T07:49:18;8.77;;;7.87;;
10847;SDS011;5477;48.806;9.154;2023-05-14T07:51:46;9.07;;;8.03;;
10847;SDS011;5477;48.806;9.154;2023-05-14T07:54:15;8.67;;;7.77;;
10847;SDS011;5477;48.806;9.154;2023-05-14T07:56:43;8.80;;;7.90;;
10847;SDS011;5477;48.806;9.154;2023-05-14T07:59:11;9.93;;;8.67;;
10847;SDS011;5477;48.806;9.154;2023-05-14T08:01:39;9.50;;;8.20;;
10847;SDS011;5477;48.806;9.154;2023-05-14T08:04:07;9.03;;;8.13;;
10847;SDS011;5477;48.806;9.154;2023-05-14T08:06:36;8.73;;;7.83;;
10847;SDS011;5477;48.806;9.154;2023-05-14T08:09:04;8.87;;;7.73;;
10847;SDS011;5477;48.806;9.154;2023-05-14T08:11:35;8.47;;;7.67;;
10847;SDS011;5477;48.806;9.154;2023-05-14T08:14:04;9.20;;;8.00;;
10847;SDS011;5477;48.806;9.154;2023-05-14T08:16:32;7.83;;;7.13;;
10847;SDS011;5477;48.806;9.154;2023-05-14T08:19:00;7.77;;;7.07;;
10847;SDS011;5477;48.806;9.154;2023-05-14T08:21:28;9.27;;;8.00;;
10847;SDS011;5477;48.806;9.154;2023-05-14T08:23:56;8.90;;;8.00;;
10847;SDS011;5477;48.806;9.154;2023-05-14T08:26:24;9.23;;;8.13;;
10847;SDS011;5477;48.806;9.154;2023-05-14T08:28:53;8.87;;;7.50;;
10847;SDS011;5477;48.806;9.154;2023-05-14T08:31:21;8.60;;;7.60;;
10847;SDS011;5477;48.806;9.154;2023-05-14T08:33:49;8.57;;;7.67;;
10847;SDS011;5477;48.806;9.154;2023-05-14T08:36:17;8.27;;;7.47;;
10847;SDS011;5477;48.806;9.154;2023-05-14T08:38:45;8.87;;;8.03;;
10847;SDS011;5477;48.806;9.154;2023-05-14T08:41:15;9.87;;;8.20;;
10847;SDS011;5477;48.806;9.154;2023-05-14T08:43:44;9.43;;;8.07;;
10847;SDS011;5477;48.806;9.154;2023-05-14T08:46:24;8.50;;;7.70;;
10847;SDS011;5477;48.806;9.154;2023-05-14T08:48:57;7.47;;;6.77;;
10847;SDS011;5477;48.806;9.154;2023-05-14T08:51:31;9.33;;;8.43;;
10847;SDS011;5477;48.806;9.154;2023-05-14T08:53:59;9.20;;;7.50;;
10847;SDS011;5477;48.806;9.154;2023-05-14T08:56:30;8.80;;;8.00;;
10847;SDS011;5477;48.806;9.154;2023-05-14T08:58:59;8.77;;;7.87;;
10847;SDS011;5477;48.806;9.154;2023-05-14T09:01:29;8.10;;;7.30;;
10847;SDS011;5477;48.806;9.154;2023-05-14T09:03:58;8.70;;;7.80;;
10847;SDS011;5477;48.806;9.154;2023-05-14T09:06:32;10.77;;;8.73;;
10847;SDS011;5477;48.806;9.154;2023-05-14T09:09:04;9.07;;;7.97;;
10847;SDS011;5477;48.806;9.154;2023-05-14T09:11:33;10.70;;;8.33;;
10847;SDS011;5477;48.806;9.154;2023-05-14T09:14:06;9.27;;;8.27;;
10847;SDS011;5477;48.806;9.154;2023-05-14T09:16:36;10.83;;;9.73;;
10847;SDS011;5477;48.806;9.154;2023-05-14T09:19:05;9.87;;;8.83;;
10847;SDS011;5477;48.806;9.154;2023-05-14T09:21:33;9.67;;;8.67;;
10847;SDS011;5477;48.806;9.154;2023-05-14T09:24:02;14.03;;;8.97;;
10847;SDS011;5477;48.806;9.154;2023-05-14T09:26:30;12.27;;;9.70;;
10847;SDS011;5477;48.806;9.154;2023-05-14T09:28:59;10.67;;;9.60;;
10847;SDS011;5477;48.806;9.154;2023-05-14T09:31:29;11.03;;;9.60;;
10847;SDS011;5477;48.806;9.154;2023-05-14T09:33:59;10.70;;;9.20;;
10847;SDS011;5477;48.806;9.154;2023-05-14T09:36:27;10.40;;;8.70;;
10847;SDS011;5477;48.806;9.154;2023-05-14T09:38:56;11.10;;;9.13;;
10847;SDS011;5477;48.806;9.154;2023-05-14T09:41:24;9.50;;;8.50;;
10847;SDS011;5477;48.806;9.154;2023-05-14T09:43:52;8.87;;;7.93;;
10847;SDS011;5477;48.806;9.154;2023-05-14T09:46:22;9.23;;;7.77;;
10847;SDS011;5477;48.806;9.154;2023-05-14T09:48:55;7.40;;;6.57;;
10847;SDS011;5477;48.806;9.154;2023-05-14T09:51:25;7.77;;;6.97;;
10847;SDS011;5477;48.806;9.154;2023-05-14T09:53:56;6.83;;;6.13;;
10847;SDS011;5477;48.806;9.154;2023-05-14T09:56:25;8.23;;;7.43;;
10847;SDS011;5477;48.806;9.154;2023-05-14T09:58:53;10.27;;;8.87;;
10847;SDS011;5477;48.806;9.154;2023-05-14T10:01:21;11.03;;;8.00;;
10847;SDS011;5477;48.806;9.154;2023-05-14T10:03:49;9.60;;;8.60;;
10847;SDS011;5477;48.806;9.154;2023-05-14T10:06:20;8.90;;;8.00;;
10847;SDS011;5477;48.806;9.154;2023-05-14T10:08:52;8.03;;;7.17;;
10847;SDS011;5477;48.806;9.154;2023-05-14T10:11:23;8.17;;;7.23;;
10847;SDS011;5477;48.806;9.154;2023-05-14T10:13:57;8.57;;;7.17;;
10847;SDS011;5477;48.806;9.154;2023-05-14T10:16:30;7.43;;;6.40;;
10847;SDS011;5477;48.806;9.154;2023-05-14T10:19:01;6.17;;;5.57;;
10847;SDS011;5477;48.806;9.154;2023-05-14T10:21:35;7.27;;;6.27;;
10847;SDS011;5477;48.806;9.154;2023-05-14T10:24:06;6.10;;;5.50;;
10847;SDS011;5477;48.806;9.154;2023-05-14T10:26:37;6.93;;;5.90;;
10847;SDS011;5477;48.806;9.154;2023-05-14T10:29:08;6.03;;;5.33;;
10847;SDS011;5477;48.806;9.154;2023-05-14T10:31:46;7.30;;;5.40;;
10847;SDS011;5477;48.806;9.154;2023-05-14T10:34:34;5.97;;;5.37;;
10847;SDS011;5477;48.806;9.154;2023-05-14T10:37:04;7.13;;;6.43;;
10847;SDS011;5477;48.806;9.154;2023-05-14T10:39:42;7.00;;;5.90;;
10847;SDS011;5477;48.806;9.154;2023-05-14T10:42:12;6.47;;;5.87;;
10847;SDS011;5477;48.806;9.154;2023-05-14T10:44:46;7.00;;;6.20;;
10847;SDS011;5477;48.806;9.154;2023-05-14T10:47:18;7.27;;;5.73;;
10847;SDS011;5477;48.806;9.154;2023-05-14T10:49:46;6.83;;;6.23;;
10847;SDS011;5477;48.806;9.154;2023-05-14T10:52:15;6.63;;;6.00;;
10847;SDS011;5477;48.806;9.154;2023-05-14T10:54:49;6.23;;;5.00;;
10847;SDS011;5477;48.806;9.154;2023-05-14T10:57:18;6.23;;;5.50;;
10847;SDS011;5477;48.806;9.154;2023-05-14T10:59:47;6.63;;;6.00;;
10847;SDS011;5477;48.806;9.154;2023-05-14T11:02:19;8.27;;;6.90;;
10847;SDS011;5477;48.806;9.154;2023-05-14T11:04:53;8.53;;;6.80;;
10847;SDS011;5477;48.806;9.154;2023-05-14T11:07:23;8.27;;;7.23;;
10847;SDS011;5477;48.806;9.154;2023-05-14T11:09:58;10.27;;;7.50;;
10847;SDS011;5477;48.806;9.154;2023-05-14T11:12:28;7.60;;;6.57;;
10847;SDS011;5477;48.806;9.154;2023-05-14T11:14:57;8.90;;;6.73;;
10847;SDS011;5477;48.806;9.154;2023-05-14T11:17:26;7.07;;;5.87;;
10847;SDS011;5477;48.806;9.154;2023-05-14T11:19:55;9.57;;;6.90;;
10847;SDS011;5477;48.806;9.154;2023-05-14T11:22:23;7.77;;;6.43;;
10847;SDS011;5477;48.806;9.154;2023-05-14T11:24:52;6.80;;;6.10;;
10847;SDS011;5477;48.806;9.154;2023-05-14T11:27:21;6.60;;;5.90;;
10847;SDS011;5477;48.806;9.154;2023-05-14T11:29:49;6.80;;;6.20;;
10847;SDS011;5477;48.806;9.154;2023-05-14T11:32:18;6.37;;;5.77;;
10847;SDS011;5477;48.806;9.154;2023-05-14T11:34:46;6.77;;;6.00;;
10847;SDS011;5477;48.806;9.154;2023-05-14T11:37:15;6.30;;;5.70;;
10847;SDS011;5477;48.806;9.154;2023-05-14T11:39:46;6.50;;;5.80;;
10847;SDS011;5477;48.806;9.154;2023-05-14T11:42:16;6.70;;;5.20;;
10847;SDS011;5477;48.806;9.154;2023-05-14T11:44:47;7.27;;;5.57;;
10847;SDS011;5477;48.806;9.154;2023-05-14T11:47:17;6.50;;;5.67;;
10847;SDS011;5477;48.806;9.154;2023-05-14T11:49:46;7.30;;;5.80;;
10847;SDS011;5477;48.806;9.154;2023-05-14T11:52:15;6.27;;;5.67;;
10847;SDS011;5477;48.806;9.154;2023-05-14T11:54:45;6.20;;;5.60;;
10847;SDS011;5477;48.806;9.154;2023-05-14T11:57:15;5.20;;;4.70;;
10847;SDS011;5477;48.806;9.154;2023-05-14T11:59:44;6.27;;;5.07;;
10847;SDS011;5477;48.806;9.154;2023-05-14T12:02:16;5.03;;;4.40;;
10847;SDS011;5477;48.806;9.154;2023-05-14T12:04:48;5.20;;;4.70;;
10847;SDS011;5477;48.806;9.154;2023-05-14T12:07:17;5.00;;;4.53;;
10847;SDS011;5477;48.806;9.154;2023-05-14T12:09:46;5.50;;;4.57;;
10847;SDS011;5477;48.806;9.154;2023-05-14T12:12:16;5.23;;;4.60;;
10847;SDS011;5477;48.806;9.154;2023-05-14T12:14:46;4.57;;;4.17;;
10847;SDS011;5477;48.806;9.154;2023-05-14T12:17:16;5.07;;;4.53;;
10847;SDS011;5477;48.806;9.154;2023-05-14T12:19:47;6.07;;;5.07;;
10847;SDS011;5477;48.806;9.154;2023-05-14T12:22:16;5.77;;;4.77;;
10847;SDS011;5477;48.806;9.154;2023-05-14T12:24:51;4.93;;;4.43;;
10847;SDS011;5477;48.806;9.154;2023-05-14T12:27:20;5.23;;;4.73;;
10847;SDS011;5477;48.806;9.154;2023-05-14T12:29:50;6.17;;;5.30;;
10847;SDS011;5477;48.806;9.154;2023-05-14T12:32:38;6.37;;;5.00;;
10847;SDS011;5477;48.806;9.154;2023-05-14T12:35:07;6.47;;;5.07;;
10847;SDS011;5477;48.806;9.154;2023-05-14T12:37:35;6.00;;;5.23;;
10847;SDS011;5477;48.806;9.154;2023-05-14T12:40:05;6.03;;;5.43;;
10847;SDS011;5477;48.806;9.154;2023-05-14T12:42:35;5.73;;;4.83;;
10847;SDS011;5477;48.806;9.154;2023-05-14T12:45:05;4.70;;;4.27;;
10847;SDS011;5477;48.806;9.154;2023-05-14T12:47:34;4.27;;;3.87;;
10847;SDS011;5477;48.806;9.154;2023-05-14T12:50:03;3.57;;;2.97;;
10847;SDS011;5477;48.806;9.154;2023-05-14T12:52:32;3.67;;;3.37;;
10847;SDS011;5477;48.806;9.154;2023-05-14T12:55:05;5.27;;;3.70;;
10847;SDS011;5477;48.806;9.154;2023-05-14T12:57:34;4.20;;;3.80;;
10847;SDS011;5477;48.806;9.154;2023-05-14T13:00:05;4.20;;;3.70;;
10847;SDS011;5477;48.806;9.154;2023-05-14T13:02:39;5.03;;;3.67;;
10847;SDS011;5477;48.806;9.154;2023-05-14T13:05:09;6.23;;;3.67;;
10847;SDS011;5477;48.806;9.154;2023-05-14T13:07:38;5.40;;;4.53;;
10847;SDS011;5477;48.806;9.154;2023-05-14T13:10:06;3.97;;;3.60;;
10847;SDS011;5477;48.806;9.154;2023-05-14T13:12:35;5.70;;;4.20;;
10847;SDS011;5477;48.806;9.154;2023-05-14T13:15:05;4.30;;;3.80;;
10847;SDS011;5477;48.806;9.154;2023-05-14T13:17:34;3.60;;;3.30;;
10847;SDS011;5477;48.806;9.154;2023-05-14T13:20:03;4.90;;;3.67;;
10847;SDS011;5477;48.806;9.154;2023-05-14T13:22:31;3.87;;;3.57;;
10847;SDS011;5477;48.806;9.154;2023-05-14T13:24:59;5.13;;;3.83;;
10847;SDS011;5477;48.806;9.154;2023-05-14T13:27:27;3.83;;;3.53;;
10847;SDS011;5477;48.806;9.154;2023-05-14T13:29:55;3.93;;;3.63;;
10847;SDS011;5477;48.806;9.154;2023-05-14T13:32:25;5.67;;;3.40;;
10847;SDS011;5477;48.806;9.154;2023-05-14T13:34:53;5.93;;;4.20;;
10847;SDS011;5477;48.806;9.154;2023-05-14T13:37:21;3.93;;;3.40;;
10847;SDS011;5477;48.806;9.154;2023-05-14T13:39:50;4.27;;;3.83;;
10847;SDS011;5477;48.806;9.154;2023-05-14T13:42:18;4.07;;;3.67;;
10847;SDS011;5477;48.806;9.154;2023-05-14T13:44:46;3.97;;;3.20;;
10847;SDS011;5477;48.806;9.154;2023-05-14T13:47:14;5.67;;;4.07;;
10847;SDS011;5477;48.806;9.154;2023-05-14T13:49:43;4.67;;;3.83;;
10847;SDS011;5477;48.806;9.154;2023-05-14T13:52:11;6.83;;;4.47;;
10847;SDS011;5477;48.806;9.154;2023-05-14T13:54:39;4.03;;;3.73;;
10847;SDS011;5477;48.806;9.154;2023-05-14T13:57:07;4.00;;;3.60;;
10847;SDS011;5477;48.806;9.154;2023-05-14T13:59:35;4.60;;;3.80;;
10847;SDS011;5477;48.806;9.154;2023-05-14T14:02:03;5.27;;;4.13;;
10847;SDS011;5477;48.806;9.154;2023-05-14T14:04:32;4.20;;;3.10;;
10847;SDS011;5477;48.806;9.154;2023-05-14T14:07:01;4.03;;;3.20;;
10847;SDS011;5477;48.806;9.154;2023-05-14T14:09:29;6.33;;;3.33;;
10847;SDS011;5477;48.806;9.154;2023-05-14T14:12:00;3.17;;;2.87;;
10847;SDS011;5477;48.806;9.154;2023-05-14T14:14:30;2.80;;;2.60;;
10847;SDS011;5477;48.806;9.154;2023-05-14T14:16:58;2.87;;;2.43;;
10847;SDS011;5477;48.806;9.154;2023-05-14T14:19:25;4.27;;;2.80;;
10847;SDS011;5477;48.806;9.154;2023-05-14T14:21:53;4.47;;;3.10;;
10847;SDS011;5477;48.806;9.154;2023-05-14T14:24:23;3.80;;;2.90;;
10847;SDS011;5477;48.806;9.154;2023-05-14T14:26:51;4.73;;;3.50;;
10847;SDS011;5477;48.806;9.154;2023-05-14T14:29:19;3.90;;;3.50;;
10847;SDS011;5477;48.806;9.154;2023-05-14T14:31:49;4.13;;;3.73;;
10847;SDS011;5477;48.806;9.154;2023-05-14T14:34:17;3.33;;;3.03;;
10847;SDS011;5477;48.806;9.154;2023-05-14T14:36:44;3.97;;;3.27;;
10847;SDS011;5477;48.806;9.154;2023-05-14T14:39:12;3.63;;;3.23;;
10847;SDS011;5477;48.806;9.154;2023-05-14T14:41:42;3.30;;;3.10;;
10847;SDS011;5477;48.806;9.154;2023-05-14T14:44:11;5.07;;;3.87;;
10847;SDS011;5477;48.806;9.154;2023-05-14T14:46:38;3.43;;;3.13;;
10847;SDS011;5477;48.806;9.154;2023-05-14T14:49:08;2.67;;;2.47;;
10847;SDS011;5477;48.806;9.154;2023-05-14T14:51:35;3.33;;;3.00;;
10847;SDS011;5477;48.806;9.154;2023-05-14T14:54:04;2.87;;;2.60;;
10847;SDS011;5477;48.806;9.154;2023-05-14T14:56:32;3.40;;;2.47;;
10847;SDS011;5477;48.806;9.154;2023-05-14T14:59:01;3.43;;;2.43;;
10847;SDS011;5477;48.806;9.154;2023-05-14T15:01:29;2.80;;;2.60;;
10847;SDS011;5477;48.806;9.154;2023-05-14T15:03:57;3.50;;;2.30;;
10847;SDS011;5477;48.806;9.154;2023-05-14T15:06:26;3.35;;;2.53;;
10847;SDS011;5477;48.806;9.154;2023-05-14T15:08:54;3.58;;;2.45;;
10847;SDS011;5477;48.806;9.154;2023-05-14T15:11:22;3.15;;;2.53;;